SUAA

Details ICAO SUAA
Name ANGEL S ADAMI
Region Uruguay
Timezone America/Montevideo (UTC-3.0)
Plans Departing 14
Arriving 9
Stats Elevation 174 ft / 53 m (AMSL)
Location -34.789096° -56.264702°
Runways 1
Magnetic Variation 10.655° W
Sunrise 2017-12-15 08:27:27 UTC / 2017-12-15 05:27:27 Local
Sunset 2017-12-15 22:55:54 UTC / 2017-12-15 19:55:54 Local
Advertisement - Login to hide

Runways

ID Width Length Bearing (true) Bearing (mag) Surface Threshold Offset Overrun Length
18 75 ft / 23 m 4,194 ft / 1,278 m 176.77° 187.42° Concrete 0 ft / 0 m 0 ft / 0 m
36 75 ft / 23 m 4,194 ft / 1,278 m 356.77° 7.42° Concrete 0 ft / 0 m 0 ft / 0 m

Map

Weather


0- 5 10 15 20 25 30 35+ Temperature / ° C

Clouds and Precipitation
Forecast for 2017-12-15 18:00 UTC. Updated an hour ago

Ground ~20,000 ft ~40,000 ft Winds

METAR

SUAA 151600Z 27009KT 9999 FEW040 32/16 Q1010

TAF

SUAA 151130Z 1512/1612 29010KT CAVOK TX32/1518Z TN24/1609Z BECMG 1515/1517 12015KT 9999 FEW033TCU SCT200 BECMG 1600/1602 02010G20KT

Frequencies

Tower 118.40 MHz ADAMI TWR
Tower 122.10 MHz ADAMI TWR
Warning: Do not use this data for real-world aviation or navigation. No guarantee of current accuracy is given.